Time;durP1;ratioP1;P1;durP2;ratioP2;P2;SDS_P1;SDS_P2;PMS_P1;PMS_P2;Temp;Humidity;BMP_temperature;BMP_pressure;BME280_temperature;BME280_humidity;BME280_pressure;Samples;Min_cycle;Max_cycle;Signal;HPM_P1;HPM_P2
2023/09/20 00:00:36;;;;;;;8.88;6.25;;;12.30;99.90;;;;;;5028699;28;20566;-73
2023/09/20 00:03:02;;;;;;;8.23;5.78;;;12.30;99.90;;;;;;5032145;28;20063;-73
2023/09/20 00:05:28;;;;;;;10.02;6.40;;;12.20;99.90;;;;;;5028312;28;20021;-72
2023/09/20 00:07:57;;;;;;;6.90;6.10;;;12.20;99.90;;;;;;5031197;28;20109;-72
2023/09/20 00:10:23;;;;;;;10.18;5.85;;;12.20;99.90;;;;;;5038184;28;20025;-73
2023/09/20 00:12:50;;;;;;;11.35;7.90;;;12.20;99.90;;;;;;5024969;28;20075;-75
2023/09/20 00:15:16;;;;;;;11.88;7.32;;;12.10;99.90;;;;;;5030593;28;20773;-75
2023/09/20 00:17:41;;;;;;;14.98;8.95;;;12.10;99.90;;;;;;5030688;28;20053;-75
2023/09/20 00:20:14;;;;;;;10.40;8.23;;;12.10;99.90;;;;;;5025857;28;20026;-75
2023/09/20 00:22:41;;;;;;;9.05;7.43;;;12.10;99.90;;;;;;5015295;28;20026;-76
2023/09/20 00:25:11;;;;;;;10.10;6.22;;;12.10;99.90;;;;;;5014528;28;20424;-76
2023/09/20 00:27:38;;;;;;;6.72;5.63;;;12.00;99.90;;;;;;5023181;28;20021;-75
2023/09/20 00:30:17;;;;;;;6.57;5.75;;;11.90;99.90;;;;;;5018547;28;20121;-72
2023/09/20 00:32:43;;;;;;;4.55;4.15;;;11.90;99.90;;;;;;5029028;28;20064;-72
2023/09/20 00:35:11;;;;;;;6.93;5.22;;;11.80;99.90;;;;;;5028594;28;20082;-72
2023/09/20 00:37:41;;;;;;;6.72;4.78;;;11.80;99.90;;;;;;5024539;28;20639;-72
2023/09/20 00:40:15;;;;;;;4.90;4.40;;;11.70;99.90;;;;;;5021617;28;20517;-72
2023/09/20 00:42:42;;;;;;;5.93;5.32;;;11.70;99.90;;;;;;5016780;28;20026;-72
2023/09/20 00:45:09;;;;;;;5.90;4.35;;;11.70;99.90;;;;;;5041823;28;20017;-72
2023/09/20 00:47:40;;;;;;;7.10;5.53;;;11.60;99.90;;;;;;5029083;28;20028;-75
2023/09/20 00:50:08;;;;;;;7.40;5.35;;;11.60;99.90;;;;;;5031305;28;20625;-73
2023/09/20 00:52:34;;;;;;;6.63;5.40;;;11.50;99.90;;;;;;5029819;28;20022;-74
2023/09/20 00:54:59;;;;;;;8.52;6.22;;;11.50;99.90;;;;;;5024959;28;20025;-72
2023/09/20 00:57:26;;;;;;;13.93;7.25;;;11.50;99.90;;;;;;5026970;28;20033;-72
2023/09/20 00:59:51;;;;;;;10.82;6.63;;;11.50;99.90;;;;;;5032101;28;20052;-75
2023/09/20 01:02:18;;;;;;;18.25;8.00;;;11.50;99.90;;;;;;5032000;28;20053;-75
2023/09/20 01:04:45;;;;;;;33.35;8.43;;;11.50;99.90;;;;;;5041290;28;20029;-73
2023/09/20 01:07:11;;;;;;;15.07;9.48;;;11.40;99.90;;;;;;5031835;28;20017;-73
2023/09/20 01:09:37;;;;;;;16.00;9.45;;;11.40;99.90;;;;;;5032206;28;20034;-75
2023/09/20 01:12:05;;;;;;;30.58;8.75;;;11.40;99.90;;;;;;5036257;28;20094;-72
2023/09/20 01:14:31;;;;;;;22.35;8.35;;;11.40;99.90;;;;;;5031955;28;20024;-72
2023/09/20 01:16:57;;;;;;;86.15;12.30;;;11.30;99.90;;;;;;5032353;28;20033;-73
2023/09/20 01:19:22;;;;;;;31.00;9.10;;;11.30;99.90;;;;;;5042511;28;20037;-72
2023/09/20 01:21:48;;;;;;;34.85;10.90;;;11.30;99.90;;;;;;5047229;28;20028;-75
2023/09/20 01:24:16;;;;;;;53.42;11.80;;;11.30;99.90;;;;;;5042644;28;20390;-76
2023/09/20 01:26:44;;;;;;;24.30;10.35;;;11.20;99.90;;;;;;5032388;28;20005;-76
2023/09/20 01:29:12;;;;;;;19.23;9.73;;;11.20;99.90;;;;;;5024222;28;20483;-72
2023/09/20 01:31:37;;;;;;;25.13;11.60;;;11.20;99.90;;;;;;5027241;28;20021;-75
2023/09/20 01:34:03;;;;;;;27.02;13.63;;;11.20;99.90;;;;;;5030547;28;20481;-76
2023/09/20 01:36:29;;;;;;;25.42;13.57;;;11.20;99.90;;;;;;5034078;28;20575;-76
2023/09/20 01:38:54;;;;;;;28.20;13.85;;;11.20;99.90;;;;;;5031440;28;20056;-75
2023/09/20 01:41:20;;;;;;;42.20;13.73;;;11.20;99.90;;;;;;5031181;28;20106;-72
2023/09/20 01:43:46;;;;;;;25.05;10.70;;;11.10;99.90;;;;;;5039483;28;20029;-72
2023/09/20 01:46:11;;;;;;;18.75;10.82;;;11.10;99.90;;;;;;5033284;28;20445;-72
2023/09/20 01:48:37;;;;;;;17.38;9.77;;;11.10;99.90;;;;;;5031919;28;20033;-73
2023/09/20 01:51:03;;;;;;;13.65;8.18;;;11.10;99.90;;;;;;5040043;28;20025;-75
2023/09/20 01:53:29;;;;;;;22.98;8.48;;;11.00;99.90;;;;;;5035633;28;20032;-75
2023/09/20 01:55:57;;;;;;;10.52;6.45;;;11.00;99.90;;;;;;5044407;28;20025;-72
2023/09/20 01:58:23;;;;;;;12.60;7.15;;;10.90;99.90;;;;;;5030026;28;20055;-72
2023/09/20 02:00:50;;;;;;;9.80;6.85;;;10.90;99.90;;;;;;5031116;28;20029;-72
2023/09/20 02:03:18;;;;;;;17.13;8.60;;;10.80;99.90;;;;;;5035414;28;20481;-73
2023/09/20 02:05:48;;;;;;;14.52;7.85;;;10.90;99.90;;;;;;5030200;28;20026;-72
2023/09/20 02:08:15;;;;;;;16.33;9.32;;;10.80;99.90;;;;;;5039065;28;20076;-74
2023/09/20 02:10:41;;;;;;;13.93;8.00;;;10.80;99.90;;;;;;5039100;28;20112;-75
2023/09/20 02:13:11;;;;;;;14.88;10.05;;;10.80;99.90;;;;;;5036237;28;20060;-72
2023/09/20 02:15:41;;;;;;;13.90;9.50;;;10.80;99.90;;;;;;5029888;28;20021;-75
2023/09/20 02:18:08;;;;;;;17.95;10.73;;;10.80;99.90;;;;;;5031396;28;20034;-75
2023/09/20 02:20:36;;;;;;;26.33;12.65;;;10.80;99.90;;;;;;5032650;28;20669;-75
2023/09/20 02:23:03;;;;;;;23.98;11.63;;;10.80;99.90;;;;;;5034779;28;20395;-75
2023/09/20 02:25:29;;;;;;;24.48;12.55;;;10.70;99.90;;;;;;5034522;28;20039;-72
2023/09/20 02:28:02;;;;;;;48.55;15.73;;;10.70;99.90;;;;;;5030739;28;20038;-75
2023/09/20 02:30:28;;;;;;;29.27;14.48;;;10.70;99.90;;;;;;5019856;28;20439;-75
2023/09/20 02:32:57;;;;;;;29.60;13.25;;;10.60;99.90;;;;;;5029436;28;20025;-72
2023/09/20 02:35:24;;;;;;;24.42;11.80;;;10.60;99.90;;;;;;5030523;28;20049;-74
2023/09/20 02:37:53;;;;;;;26.65;12.57;;;10.60;99.90;;;;;;5030320;28;20519;-74
2023/09/20 02:40:18;;;;;;;18.10;10.63;;;10.60;99.90;;;;;;5023408;28;20021;-74
2023/09/20 02:42:46;;;;;;;20.30;12.70;;;10.50;99.90;;;;;;5042085;28;20040;-72
2023/09/20 02:45:12;;;;;;;20.92;12.95;;;10.50;99.90;;;;;;5037425;28;20014;-74
2023/09/20 02:47:43;;;;;;;21.20;13.25;;;10.50;99.90;;;;;;5047996;28;20021;-75
2023/09/20 02:50:11;;;;;;;22.83;12.48;;;10.50;99.90;;;;;;5030574;28;20041;-75
2023/09/20 02:52:41;;;;;;;23.23;12.52;;;10.50;99.90;;;;;;5033331;28;20078;-76
2023/09/20 02:55:08;;;;;;;19.05;12.95;;;10.40;99.90;;;;;;5030378;28;20041;-72
2023/09/20 02:57:37;;;;;;;23.23;12.57;;;10.40;99.90;;;;;;5032574;28;20077;-75
2023/09/20 03:00:16;;;;;;;20.88;12.18;;;10.30;99.90;;;;;;5032363;28;20026;-73
2023/09/20 03:02:45;;;;;;;22.88;11.20;;;10.30;99.90;;;;;;5019768;28;20025;-73
2023/09/20 03:05:13;;;;;;;17.98;11.85;;;10.30;99.90;;;;;;5028820;28;20105;-75
2023/09/20 03:07:39;;;;;;;18.52;12.20;;;10.20;99.90;;;;;;5032310;28;20025;-72
2023/09/20 03:10:06;;;;;;;22.02;13.30;;;10.20;99.90;;;;;;5033628;28;20158;-75
2023/09/20 03:12:33;;;;;;;28.15;12.20;;;10.20;99.90;;;;;;5030509;28;20026;-75
2023/09/20 03:15:04;;;;;;;32.10;12.48;;;10.10;99.90;;;;;;5029158;28;20028;-72
2023/09/20 03:17:31;;;;;;;21.20;12.95;;;10.10;99.90;;;;;;5030194;28;20022;-73
2023/09/20 03:19:57;;;;;;;22.02;12.90;;;10.10;99.90;;;;;;5041327;28;20029;-75
2023/09/20 03:22:22;;;;;;;20.48;12.43;;;10.10;99.90;;;;;;5035119;28;20439;-75
2023/09/20 03:24:48;;;;;;;18.80;11.80;;;10.10;99.90;;;;;;5034944;28;20021;-72
2023/09/20 03:27:17;;;;;;;15.10;10.20;;;10.10;99.90;;;;;;5033891;28;20017;-76
2023/09/20 03:29:46;;;;;;;18.27;10.48;;;10.00;99.90;;;;;;5023538;28;20072;-75
2023/09/20 03:32:15;;;;;;;16.33;10.80;;;10.00;99.90;;;;;;5018923;28;20017;-75
2023/09/20 03:34:41;;;;;;;13.82;9.63;;;9.90;99.90;;;;;;5030038;28;20032;-76
2023/09/20 03:37:09;;;;;;;12.40;8.63;;;9.90;99.90;;;;;;5033797;28;20029;-76
2023/09/20 03:39:40;;;;;;;15.90;9.40;;;9.90;99.90;;;;;;5034189;28;20093;-75
2023/09/20 03:42:07;;;;;;;13.50;9.98;;;9.80;99.90;;;;;;5028598;28;20386;-75
2023/09/20 03:44:33;;;;;;;13.45;8.82;;;9.80;99.90;;;;;;5030069;28;20054;-75
2023/09/20 03:46:59;;;;;;;14.68;9.85;;;9.80;99.90;;;;;;5029836;28;20487;-75
2023/09/20 03:49:25;;;;;;;13.40;8.00;;;9.80;99.90;;;;;;5029943;28;20033;-72
2023/09/20 03:51:50;;;;;;;11.32;8.10;;;9.70;99.90;;;;;;5028061;28;20013;-72
2023/09/20 03:54:16;;;;;;;10.70;7.88;;;9.70;99.90;;;;;;5035484;28;20029;-72
2023/09/20 03:56:42;;;;;;;8.45;5.85;;;9.60;99.90;;;;;;5043483;28;20021;-75
2023/09/20 03:59:08;;;;;;;11.65;6.75;;;9.60;99.90;;;;;;5028245;28;20021;-72
2023/09/20 04:01:35;;;;;;;11.63;6.22;;;9.60;99.90;;;;;;5029895;28;20021;-72
2023/09/20 04:04:00;;;;;;;8.68;6.97;;;9.50;99.90;;;;;;5030421;28;20450;-71
2023/09/20 04:06:29;;;;;;;10.43;7.00;;;9.50;99.90;;;;;;5029285;28;20108;-74
2023/09/20 04:08:55;;;;;;;12.85;7.80;;;9.50;99.90;;;;;;5029310;28;20045;-75
2023/09/20 04:11:21;;;;;;;18.50;9.13;;;9.50;99.90;;;;;;5029174;28;20014;-72
2023/09/20 04:13:47;;;;;;;10.85;7.53;;;9.50;99.90;;;;;;5029299;28;20475;-74
2023/09/20 04:16:12;;;;;;;15.35;9.65;;;9.40;99.90;;;;;;5035915;28;20021;-75
2023/09/20 04:18:38;;;;;;;15.38;9.88;;;9.40;99.90;;;;;;5033565;28;20026;-72
2023/09/20 04:21:04;;;;;;;24.13;8.45;;;9.40;99.90;;;;;;5029224;28;20029;-72
2023/09/20 04:23:32;;;;;;;20.05;9.80;;;9.30;99.90;;;;;;5034348;28;20056;-72
2023/09/20 04:25:57;;;;;;;13.38;8.63;;;9.30;99.90;;;;;;5029148;28;20030;-72
2023/09/20 04:28:23;;;;;;;13.68;9.38;;;9.30;99.90;;;;;;5031231;28;20032;-74
2023/09/20 04:30:49;;;;;;;12.77;7.93;;;9.30;99.90;;;;;;5021951;28;20025;-74
2023/09/20 04:33:15;;;;;;;15.68;7.75;;;9.30;99.90;;;;;;5031010;28;20025;-72
2023/09/20 04:35:41;;;;;;;22.52;8.57;;;9.30;99.90;;;;;;5041617;28;20028;-76
2023/09/20 04:38:06;;;;;;;8.32;6.20;;;9.10;99.90;;;;;;5035218;28;20049;-72
2023/09/20 04:40:32;;;;;;;15.20;7.00;;;9.10;99.90;;;;;;5032597;28;20030;-75
2023/09/20 04:42:58;;;;;;;14.50;8.30;;;9.10;99.90;;;;;;5032335;28;20029;-72
2023/09/20 04:45:24;;;;;;;21.08;11.32;;;9.10;99.90;;;;;;5031349;28;20026;-72
2023/09/20 04:47:50;;;;;;;16.75;10.20;;;9.10;99.90;;;;;;5030927;28;20013;-75
2023/09/20 04:50:16;;;;;;;16.13;9.52;;;9.10;99.90;;;;;;5032485;28;20070;-75
2023/09/20 04:52:43;;;;;;;17.15;10.15;;;9.10;99.90;;;;;;5030972;28;20382;-72
2023/09/20 04:55:10;;;;;;;19.80;9.60;;;9.10;99.90;;;;;;5040438;28;20018;-72
2023/09/20 04:57:36;;;;;;;21.00;9.88;;;9.20;99.90;;;;;;5032046;28;20095;-72
2023/09/20 05:00:15;;;;;;;24.83;12.52;;;9.20;99.90;;;;;;5040998;28;20034;-75
2023/09/20 05:02:41;;;;;;;35.65;15.32;;;9.20;99.90;;;;;;5032857;28;20471;-72
2023/09/20 05:05:07;;;;;;;21.27;11.75;;;9.30;99.90;;;;;;5035751;28;20028;-75
2023/09/20 05:07:34;;;;;;;19.42;11.73;;;9.30;99.90;;;;;;5034049;28;20022;-74
2023/09/20 05:10:00;;;;;;;16.92;10.38;;;9.30;99.90;;;;;;5044273;28;20063;-72
2023/09/20 05:12:25;;;;;;;22.65;12.20;;;9.40;99.90;;;;;;5032477;28;20068;-72
2023/09/20 05:14:51;;;;;;;22.50;12.70;;;9.40;99.90;;;;;;5031909;28;20029;-72
2023/09/20 05:17:17;;;;;;;26.70;14.95;;;9.40;99.90;;;;;;5039177;28;20017;-72
2023/09/20 05:19:43;;;;;;;24.33;13.32;;;9.40;99.90;;;;;;5036950;28;20077;-72
2023/09/20 05:22:08;;;;;;;20.60;12.73;;;9.40;99.90;;;;;;5032149;28;20045;-73
2023/09/20 05:24:34;;;;;;;19.73;12.48;;;9.50;99.90;;;;;;5031982;28;20032;-75
2023/09/20 05:26:59;;;;;;;17.40;11.25;;;9.50;99.90;;;;;;5031756;28;20490;-76
2023/09/20 05:29:25;;;;;;;16.77;11.32;;;9.50;99.90;;;;;;5041740;28;20059;-75
2023/09/20 05:31:51;;;;;;;16.73;10.57;;;9.60;99.90;;;;;;5031508;28;20013;-75
2023/09/20 05:34:17;;;;;;;10.85;8.35;;;9.70;99.90;;;;;;5040651;28;20022;-76
2023/09/20 05:36:43;;;;;;;12.85;10.18;;;9.70;99.90;;;;;;5039308;28;20375;-73
2023/09/20 05:39:12;;;;;;;12.40;7.25;;;9.70;99.90;;;;;;5036812;28;20144;-72
2023/09/20 05:41:39;;;;;;;8.77;7.25;;;9.80;99.90;;;;;;5029962;28;20029;-72
2023/09/20 05:44:05;;;;;;;10.95;7.88;;;9.90;99.90;;;;;;5025111;28;20046;-75
2023/09/20 05:46:31;;;;;;;11.23;8.38;;;9.90;99.90;;;;;;5012739;28;20044;-76
2023/09/20 05:48:57;;;;;;;11.48;8.80;;;10.10;99.90;;;;;;5033915;28;20834;-73
2023/09/20 05:51:22;;;;;;;13.85;8.73;;;10.20;99.90;;;;;;5032866;28;20153;-76
2023/09/20 05:53:48;;;;;;;10.35;8.10;;;10.40;99.90;;;;;;5028620;28;20479;-76
2023/09/20 05:56:14;;;;;;;9.48;8.32;;;10.50;99.90;;;;;;5032888;28;20100;-72
2023/09/20 05:58:41;;;;;;;12.85;8.75;;;10.70;99.90;;;;;;5040543;28;20026;-75
2023/09/20 06:01:10;;;;;;;10.63;8.52;;;10.90;99.90;;;;;;5037778;28;20409;-74
2023/09/20 06:03:36;;;;;;;12.90;9.27;;;11.10;99.90;;;;;;5028850;28;20048;-73
2023/09/20 06:06:04;;;;;;;16.58;8.93;;;11.30;99.90;;;;;;5024693;28;20013;-72
2023/09/20 06:08:30;;;;;;;20.25;10.35;;;11.50;99.90;;;;;;5019445;28;20029;-72
2023/09/20 06:10:56;;;;;;;19.27;10.98;;;11.70;99.90;;;;;;5032533;28;20525;-73
2023/09/20 06:13:21;;;;;;;16.98;10.55;;;11.90;99.90;;;;;;5025291;28;20029;-72
2023/09/20 06:15:47;;;;;;;14.63;10.95;;;12.10;99.90;;;;;;5037682;28;20032;-76
2023/09/20 06:18:14;;;;;;;20.48;13.30;;;12.30;99.90;;;;;;5039122;28;20538;-73
2023/09/20 06:20:45;;;;;;;19.58;14.68;;;12.50;99.90;;;;;;5031111;28;20694;-77
2023/09/20 06:23:11;;;;;;;19.35;14.38;;;12.70;99.90;;;;;;5022472;28;20014;-76
2023/09/20 06:25:36;;;;;;;19.83;14.25;;;12.90;99.90;;;;;;5025204;28;20032;-76
2023/09/20 06:28:03;;;;;;;17.65;13.38;;;13.00;99.90;;;;;;5017094;28;20110;-76
2023/09/20 06:30:29;;;;;;;19.50;12.35;;;13.20;99.90;;;;;;5019897;28;20048;-76
2023/09/20 06:32:55;;;;;;;18.15;12.95;;;13.30;99.90;;;;;;5022642;28;20021;-76
2023/09/20 06:35:22;;;;;;;14.85;11.82;;;13.40;99.90;;;;;;5028554;28;20030;-76
2023/09/20 06:37:48;;;;;;;18.42;12.80;;;13.50;99.90;;;;;;5017235;28;20071;-75
2023/09/20 06:40:22;;;;;;;20.80;14.25;;;13.70;99.90;;;;;;5026692;28;20158;-72
2023/09/20 06:42:50;;;;;;;20.85;14.00;;;13.80;99.90;;;;;;5028197;28;20022;-76
2023/09/20 06:45:19;;;;;;;20.95;14.32;;;13.90;99.90;;;;;;5029435;28;20037;-76
2023/09/20 06:47:45;;;;;;;23.27;15.27;;;14.00;99.90;;;;;;5038213;28;20021;-76
2023/09/20 06:50:15;;;;;;;22.27;14.23;;;14.10;99.90;;;;;;5028571;28;20536;-76
2023/09/20 06:52:45;;;;;;;23.15;16.27;;;14.20;99.90;;;;;;5031310;28;20022;-74
2023/09/20 06:55:17;;;;;;;18.98;13.93;;;14.40;99.90;;;;;;5018410;28;20399;-74
2023/09/20 06:57:43;;;;;;;21.70;15.05;;;14.50;99.90;;;;;;5023235;28;20091;-73
2023/09/20 07:00:24;;;;;;;19.85;13.75;;;14.60;99.90;;;;;;5032043;28;20410;-76
2023/09/20 07:02:51;;;;;;;23.38;13.52;;;14.70;99.90;;;;;;5023066;28;20022;-75
2023/09/20 07:05:17;;;;;;;19.77;14.52;;;15.00;99.90;;;;;;5016570;28;20083;-74
2023/09/20 07:07:51;;;;;;;19.95;14.15;;;15.10;99.90;;;;;;5013953;28;20025;-74
2023/09/20 07:10:17;;;;;;;19.42;14.05;;;15.20;99.90;;;;;;5027188;28;20056;-75
2023/09/20 07:12:46;;;;;;;17.15;12.13;;;15.40;99.90;;;;;;5028605;28;20139;-75
2023/09/20 07:15:23;;;;;;;15.70;11.95;;;15.60;99.90;;;;;;5019681;28;20037;-74
2023/09/20 07:18:00;;;;;;;19.40;13.38;;;15.70;99.90;;;;;;5024488;28;20036;-74
2023/09/20 07:20:31;;;;;;;16.27;13.15;;;15.80;99.90;;;;;;5032197;28;20034;-74
2023/09/20 07:22:58;;;;;;;20.05;11.60;;;16.00;99.90;;;;;;5036043;28;20044;-77
2023/09/20 07:25:27;;;;;;;14.90;10.32;;;16.00;99.90;;;;;;5030115;28;20017;-77
2023/09/20 07:27:55;;;;;;;15.02;11.13;;;16.30;99.90;;;;;;5028492;28;20025;-74
2023/09/20 07:30:22;;;;;;;19.20;13.23;;;16.30;99.90;;;;;;5026624;28;20053;-74
2023/09/20 07:32:50;;;;;;;16.27;11.77;;;16.40;99.90;;;;;;5022177;28;20101;-77
2023/09/20 07:35:52;;;;;;;20.90;12.40;;;16.50;99.90;;;;;;5027248;28;20467;-77
2023/09/20 07:38:20;;;;;;;15.32;12.18;;;16.60;99.90;;;;;;5038658;28;20136;-76
2023/09/20 07:40:50;;;;;;;17.50;11.27;;;16.70;99.90;;;;;;5032904;28;20562;-77
2023/09/20 07:43:17;;;;;;;13.38;9.32;;;16.70;99.90;;;;;;5030795;28;20032;-74
2023/09/20 07:45:44;;;;;;;16.30;10.10;;;16.80;99.90;;;;;;5031449;28;20581;-71
2023/09/20 07:48:12;;;;;;;14.80;10.48;;;16.80;99.90;;;;;;5026122;28;20024;-70
2023/09/20 07:50:49;;;;;;;12.05;9.18;;;16.90;99.90;;;;;;5017652;28;20504;-72
2023/09/20 07:53:15;;;;;;;11.10;7.88;;;16.90;99.90;;;;;;5027761;28;20064;-72
2023/09/20 07:55:45;;;;;;;10.30;7.07;;;17.10;99.90;;;;;;5033044;28;20017;-75
2023/09/20 07:58:13;;;;;;;11.52;6.18;;;17.30;99.90;;;;;;5032641;28;20017;-75
2023/09/20 08:00:47;;;;;;;10.43;7.53;;;17.40;99.90;;;;;;5029434;28;20035;-72
2023/09/20 08:03:13;;;;;;;11.00;6.28;;;17.50;99.90;;;;;;5032883;28;20017;-75
2023/09/20 08:05:41;;;;;;;9.45;7.22;;;17.70;99.90;;;;;;5031858;28;20569;-72
2023/09/20 08:08:10;;;;;;;6.82;5.40;;;17.80;99.90;;;;;;5031719;28;20021;-72
2023/09/20 08:10:37;;;;;;;8.52;6.05;;;17.90;99.90;;;;;;5034608;28;20038;-78
2023/09/20 08:13:05;;;;;;;9.30;5.53;;;17.90;99.90;;;;;;5042464;28;20026;-75
2023/09/20 08:15:44;;;;;;;6.53;5.40;;;17.90;99.90;;;;;;5042144;28;20021;-72
2023/09/20 08:20:57;;;;;;;9.13;5.35;;;18.20;99.90;;;;;;5042144;28;20090;-72
2023/09/20 09:02:15;;;;;;;5.28;2.55;;;19.50;99.90;;;;;;5038616;28;20109;-76
2023/09/20 09:04:45;;;;;;;5.68;2.60;;;19.50;99.90;;;;;;5046857;28;20021;-76
2023/09/20 09:07:12;;;;;;;5.00;2.38;;;19.60;99.90;;;;;;5033047;28;20025;-76
2023/09/20 09:09:41;;;;;;;2.28;2.00;;;19.60;97.90;;;;;;5028983;28;20509;-72
2023/09/20 09:12:08;;;;;;;5.15;2.60;;;19.70;99.70;;;;;;5038332;28;20052;-72
2023/09/20 09:14:36;;;;;;;2.65;2.17;;;19.90;99.90;;;;;;5043924;28;20431;-76
2023/09/20 09:17:03;;;;;;;5.28;2.55;;;19.90;98.90;;;;;;5041678;28;20102;-72
2023/09/20 09:19:29;;;;;;;5.20;2.33;;;20.10;99.90;;;;;;5037847;28;20520;-73
2023/09/20 09:21:59;;;;;;;3.72;2.28;;;20.30;99.90;;;;;;5041942;28;20470;-76
2023/09/20 09:24:25;;;;;;;2.30;1.88;;;20.40;98.10;;;;;;5033632;28;20486;-76
2023/09/20 09:27:04;;;;;;;2.55;1.90;;;20.40;93.90;;;;;;5034191;28;20024;-76
2023/09/20 09:29:30;;;;;;;3.05;1.63;;;20.50;89.40;;;;;;5022857;28;20064;-73
2023/09/20 09:31:56;;;;;;;2.42;2.00;;;20.30;86.30;;;;;;5029895;28;20049;-76
2023/09/20 09:34:22;;;;;;;2.97;2.22;;;20.40;84.10;;;;;;5031872;28;20033;-76
2023/09/20 09:36:48;;;;;;;4.82;1.83;;;20.40;83.70;;;;;;5038304;28;20017;-73
2023/09/20 09:39:14;;;;;;;6.70;2.22;;;20.40;82.30;;;;;;5039827;28;20091;-76
2023/09/20 09:41:44;;;;;;;3.17;2.28;;;20.20;78.40;;;;;;5033118;28;20025;-76
2023/09/20 09:44:10;;;;;;;2.60;1.55;;;20.30;80.30;;;;;;5031708;28;20021;-76
2023/09/20 09:46:38;;;;;;;3.25;2.00;;;20.40;82.70;;;;;;5031859;28;20451;-72
2023/09/20 09:49:10;;;;;;;6.07;2.03;;;20.50;84.80;;;;;;5023762;28;20037;-73
2023/09/20 09:51:42;;;;;;;2.85;1.95;;;20.70;88.40;;;;;;5034099;28;20138;-76
2023/09/20 09:54:09;;;;;;;2.60;2.00;;;20.70;78.90;;;;;;5046809;28;20370;-76
2023/09/20 09:56:35;;;;;;;6.47;3.65;;;20.80;81.70;;;;;;5034463;28;20033;-73
2023/09/20 09:59:01;;;;;;;2.90;2.60;;;20.70;77.90;;;;;;5030887;28;20017;-76
2023/09/20 10:01:28;;;;;;;5.35;2.67;;;20.80;79.40;;;;;;5031376;28;20034;-73
2023/09/20 10:03:55;;;;;;;10.40;3.92;;;20.90;83.20;;;;;;5032851;28;20021;-73
2023/09/20 10:06:25;;;;;;;7.72;3.20;;;20.90;81.40;;;;;;5032042;28;20022;-72
2023/09/20 10:08:54;;;;;;;7.32;3.35;;;21.00;82.10;;;;;;5022505;28;20064;-76
2023/09/20 10:11:25;;;;;;;5.93;3.40;;;20.90;77.20;;;;;;5030122;28;20430;-73
2023/09/20 10:13:51;;;;;;;8.05;2.88;;;20.90;77.70;;;;;;5030174;28;20032;-73
2023/09/20 10:16:18;;;;;;;6.82;2.60;;;20.90;77.90;;;;;;5031092;28;20051;-76
2023/09/20 10:18:53;;;;;;;7.93;2.88;;;21.00;79.30;;;;;;5038631;28;20025;-73
2023/09/20 10:21:24;;;;;;;2.83;2.42;;;21.10;80.80;;;;;;5030996;28;20097;-72
2023/09/20 10:24:17;;;;;;;5.32;2.70;;;21.00;78.90;;;;;;5035013;28;20020;-73
2023/09/20 10:26:43;;;;;;;;;;;21.20;80.40;;;;;;5045812;28;20027;-76
2023/09/20 10:29:31;;;;;;;7.80;2.70;;;21.10;79.00;;;;;;5029433;28;19917;-77
2023/09/20 10:32:13;;;;;;;5.18;2.88;;;21.10;77.40;;;;;;5031725;28;20026;-77
2023/09/20 10:34:39;;;;;;;4.70;2.53;;;21.30;79.30;;;;;;5032810;28;20046;-75
2023/09/20 10:37:10;;;;;;;6.85;2.30;;;21.40;80.40;;;;;;5030252;28;20090;-75
2023/09/20 10:39:38;;;;;;;2.88;2.20;;;21.60;79.30;;;;;;5045328;28;20029;-74
2023/09/20 10:42:22;;;;;;;3.80;2.00;;;21.50;74.30;;;;;;5035015;28;20108;-72
2023/09/20 10:44:50;;;;;;;2.53;1.95;;;21.40;74.30;;;;;;5027507;28;20018;-74
2023/09/20 10:47:16;;;;;;;5.63;2.15;;;21.40;74.00;;;;;;5024434;28;20379;-74
2023/09/20 10:49:53;;;;;;;2.70;1.83;;;21.40;73.00;;;;;;5034504;28;20036;-74
2023/09/20 10:52:31;;;;;;;4.32;2.70;;;21.30;68.90;;;;;;5026851;28;20026;-78
2023/09/20 10:55:18;;;;;;;2.20;2.00;;;21.40;71.40;;;;;;5021199;28;20501;-77
2023/09/20 10:57:45;;;;;;;2.85;1.98;;;21.40;72.40;;;;;;5016904;28;20030;-73
2023/09/20 11:00:14;;;;;;;5.60;2.13;;;21.40;69.60;;;;;;5042328;28;20108;-79
2023/09/20 11:02:41;;;;;;;5.00;2.58;;;21.40;71.10;;;;;;5031099;28;20423;-73
2023/09/20 11:05:07;;;;;;;1.77;1.63;;;21.50;72.20;;;;;;5029203;28;20025;-73
2023/09/20 11:07:33;;;;;;;6.68;2.30;;;21.50;71.90;;;;;;5028402;28;20051;-80
2023/09/20 11:09:59;;;;;;;2.38;1.65;;;21.50;72.00;;;;;;5030024;28;20042;-77
2023/09/20 11:12:28;;;;;;;3.85;1.55;;;21.60;70.50;;;;;;5032692;28;20032;-77
2023/09/20 11:14:54;;;;;;;2.10;1.50;;;21.80;72.30;;;;;;5033622;28;20483;-74
2023/09/20 11:17:20;;;;;;;3.33;1.33;;;21.70;69.70;;;;;;5029930;28;20179;-77
2023/09/20 11:19:47;;;;;;;3.17;1.75;;;21.80;70.50;;;;;;5029818;28;20714;-77
2023/09/20 11:22:17;;;;;;;2.72;1.33;;;21.80;70.40;;;;;;5029731;28;20108;-74
2023/09/20 11:24:43;;;;;;;6.13;1.92;;;21.90;69.60;;;;;;5028515;28;20045;-77
2023/09/20 11:27:11;;;;;;;5.75;2.10;;;22.00;68.10;;;;;;5028419;28;20025;-74
2023/09/20 11:29:40;;;;;;;3.97;1.77;;;22.00;67.70;;;;;;5019694;28;20083;-77
2023/09/20 11:32:11;;;;;;;3.33;1.80;;;22.00;67.40;;;;;;5042211;28;20018;-74
2023/09/20 11:34:49;;;;;;;3.40;1.60;;;21.90;66.70;;;;;;5028750;28;20025;-74
2023/09/20 11:37:17;;;;;;;2.72;1.75;;;21.90;67.60;;;;;;5028654;28;20025;-74
2023/09/20 11:39:47;;;;;;;2.45;1.80;;;21.80;66.80;;;;;;5027376;28;20033;-74
2023/09/20 11:42:32;;;;;;;6.13;1.77;;;21.80;65.20;;;;;;5030752;28;20541;-74
2023/09/20 11:45:03;;;;;;;4.55;1.75;;;21.80;65.80;;;;;;5025808;28;20029;-77
2023/09/20 11:47:34;;;;;;;3.03;1.50;;;21.80;66.60;;;;;;5029105;28;20124;-77
2023/09/20 11:50:00;;;;;;;1.73;1.60;;;21.80;66.80;;;;;;5033316;28;20382;-77
2023/09/20 11:52:27;;;;;;;3.88;1.30;;;21.90;67.90;;;;;;5026876;28;20554;-77
2023/09/20 11:54:58;;;;;;;3.30;1.75;;;22.00;67.60;;;;;;5036727;28;20028;-77
2023/09/20 11:57:25;;;;;;;1.98;1.30;;;22.00;66.80;;;;;;5035777;28;20026;-75
2023/09/20 11:59:53;;;;;;;1.75;1.60;;;22.10;68.10;;;;;;5038078;28;20494;-77
2023/09/20 12:02:19;;;;;;;7.57;2.38;;;22.20;67.90;;;;;;5039245;28;20025;-72
2023/09/20 12:04:45;;;;;;;4.50;2.10;;;22.20;68.30;;;;;;5036979;28;20025;-73
2023/09/20 12:07:11;;;;;;;3.97;1.90;;;22.30;68.10;;;;;;5028565;28;20383;-72
2023/09/20 12:09:37;;;;;;;6.45;2.28;;;22.30;66.80;;;;;;5028824;28;20042;-76
2023/09/20 12:12:06;;;;;;;4.72;1.50;;;22.40;66.40;;;;;;5041096;28;20024;-77
2023/09/20 12:14:37;;;;;;;2.67;1.98;;;22.40;65.80;;;;;;5032290;28;20483;-73
2023/09/20 12:17:04;;;;;;;5.82;1.77;;;22.40;66.00;;;;;;5033178;28;20025;-76
2023/09/20 12:19:29;;;;;;;7.53;2.22;;;22.30;65.10;;;;;;5033307;28;20022;-77
2023/09/20 12:21:55;;;;;;;2.28;1.50;;;22.20;65.40;;;;;;5027455;28;20429;-77
2023/09/20 12:24:22;;;;;;;1.98;1.50;;;22.30;65.40;;;;;;5027394;28;20063;-77
2023/09/20 12:26:48;;;;;;;2.38;2.17;;;22.30;66.40;;;;;;5029043;28;20033;-77
2023/09/20 12:29:14;;;;;;;2.53;1.27;;;22.40;67.20;;;;;;5030461;28;20037;-77
2023/09/20 12:31:40;;;;;;;4.03;1.55;;;22.50;65.40;;;;;;5028904;28;20033;-78
2023/09/20 12:34:06;;;;;;;3.33;1.95;;;22.50;66.30;;;;;;5029199;28;20038;-78
2023/09/20 12:36:32;;;;;;;2.80;1.50;;;22.50;64.80;;;;;;5027598;28;21448;-77
2023/09/20 12:39:01;;;;;;;2.03;1.48;;;22.40;63.20;;;;;;5027570;28;20049;-76
2023/09/20 12:41:27;;;;;;;6.43;2.15;;;22.20;62.30;;;;;;5024501;28;20045;-78
2023/09/20 12:43:53;;;;;;;3.20;1.80;;;22.30;64.40;;;;;;5027457;28;20462;-76
2023/09/20 12:46:19;;;;;;;3.22;1.70;;;22.20;63.40;;;;;;5026753;28;20017;-78
2023/09/20 12:48:44;;;;;;;1.80;1.60;;;22.20;63.60;;;;;;5031252;28;20096;-78
2023/09/20 12:51:16;;;;;;;3.25;1.38;;;22.30;65.60;;;;;;5031924;28;20021;-78
2023/09/20 12:53:43;;;;;;;3.45;1.40;;;22.40;66.10;;;;;;5030232;28;20044;-79
2023/09/20 12:56:13;;;;;;;1.40;1.30;;;22.50;65.00;;;;;;5035507;28;20127;-79
2023/09/20 12:58:42;;;;;;;2.30;1.33;;;22.40;65.00;;;;;;5037428;28;20036;-79
2023/09/20 13:01:10;;;;;;;1.75;1.25;;;22.30;64.00;;;;;;5033631;28;20029;-76
2023/09/20 13:03:40;;;;;;;4.47;1.50;;;22.50;65.00;;;;;;5036207;28;20025;-78
2023/09/20 13:06:07;;;;;;;1.90;1.30;;;22.30;65.60;;;;;;5031735;28;20074;-78
2023/09/20 13:08:32;;;;;;;2.75;1.45;;;22.30;65.20;;;;;;5030686;28;20029;-77
2023/09/20 13:10:58;;;;;;;2.22;1.60;;;22.40;66.00;;;;;;5033822;28;20034;-77
2023/09/20 13:13:24;;;;;;;5.40;2.00;;;22.50;65.30;;;;;;5021978;28;20391;-76
2023/09/20 13:15:50;;;;;;;3.10;1.50;;;22.50;66.20;;;;;;5031596;28;20486;-76
2023/09/20 13:18:16;;;;;;;1.70;1.35;;;22.50;65.20;;;;;;5031432;28;20033;-78
2023/09/20 13:20:42;;;;;;;1.85;1.45;;;22.50;66.10;;;;;;5027675;28;20475;-77
2023/09/20 13:23:09;;;;;;;3.60;1.58;;;22.50;67.10;;;;;;5042044;28;20496;-77
2023/09/20 13:25:35;;;;;;;2.28;1.35;;;22.60;65.60;;;;;;5034746;28;20026;-77